Time;durP1;ratioP1;P1;durP2;ratioP2;P2;SDS_P1;SDS_P2;PMS_P1;PMS_P2;Temp;Humidity;BMP_temperature;BMP_pressure;BME280_temperature;BME280_humidity;BME280_pressure;Samples;Min_cycle;Max_cycle;Signal;HPM_P1;HPM_P2
2024/01/30 00:02:16;;;;;;;14.52;7.28;;;;;;;;;;4994599;28;20847;-64
2024/01/30 00:04:42;;;;;;;14.63;6.80;;;;;;;;;;4996064;28;20050;-65
2024/01/30 00:07:07;;;;;;;13.80;7.32;;;;;;;;;;4978851;28;20046;-65
2024/01/30 00:09:33;;;;;;;10.07;6.15;;;;;;;;;;4995598;28;20049;-65
2024/01/30 00:11:59;;;;;;;11.98;6.90;;;;;;;;;;4994565;28;20973;-65
2024/01/30 00:14:24;;;;;;;9.82;6.78;;;;;;;;;;4994769;28;20041;-65
2024/01/30 00:16:50;;;;;;;10.00;6.13;;;;;;;;;;4996405;28;20439;-65
2024/01/30 00:19:16;;;;;;;9.50;6.25;;;;;;;;;;4995570;28;20578;-65
2024/01/30 00:21:41;;;;;;;10.18;6.65;;;;;;;;;;4995181;28;20132;-64
2024/01/30 00:24:07;;;;;;;9.23;5.57;;;;;;;;;;4994812;28;20045;-63
2024/01/30 00:26:32;;;;;;;11.93;6.22;;;;;;;;;;4995033;28;20049;-63
2024/01/30 00:28:58;;;;;;;12.90;6.78;;;;;;;;;;4995558;28;20045;-63
2024/01/30 00:31:24;;;;;;;10.80;6.25;;;;;;;;;;4961952;28;20041;-63
2024/01/30 00:33:49;;;;;;;11.55;5.72;;;;;;;;;;4994107;28;20519;-63
2024/01/30 00:36:15;;;;;;;8.68;5.35;;;;;;;;;;4996271;28;20458;-63
2024/01/30 00:38:40;;;;;;;7.90;5.45;;;;;;;;;;4994440;28;20141;-63
2024/01/30 00:41:07;;;;;;;7.75;5.88;;;;;;;;;;4995921;28;20045;-63
2024/01/30 00:43:33;;;;;;;10.77;5.47;;;;;;;;;;4978468;28;20042;-64
2024/01/30 00:45:59;;;;;;;8.07;5.28;;;;;;;;;;4977069;28;20529;-63
2024/01/30 00:48:24;;;;;;;13.80;6.70;;;;;;;;;;4995076;28;20052;-63
2024/01/30 00:50:49;;;;;;;9.25;5.50;;;;;;;;;;4995032;28;21058;-63
2024/01/30 00:53:15;;;;;;;13.00;5.78;;;;;;;;;;4995740;28;20050;-64
2024/01/30 00:55:40;;;;;;;8.43;5.47;;;;;;;;;;4994639;28;20049;-64
2024/01/30 00:58:06;;;;;;;8.63;5.60;;;;;;;;;;4978271;28;20465;-64
2024/01/30 01:00:32;;;;;;;8.98;5.13;;;;;;;;;;4994410;28;20096;-64
2024/01/30 01:03:00;;;;;;;8.65;5.68;;;;;;;;;;4993676;28;20047;-64
2024/01/30 01:05:26;;;;;;;8.60;5.68;;;;;;;;;;4993086;28;20038;-64
2024/01/30 01:07:51;;;;;;;6.80;4.97;;;;;;;;;;4993016;28;20091;-64
2024/01/30 01:10:17;;;;;;;9.10;5.22;;;;;;;;;;4992884;28;20137;-64
2024/01/30 01:12:43;;;;;;;12.85;5.85;;;;;;;;;;4992033;28;20042;-64
2024/01/30 01:15:09;;;;;;;11.45;6.25;;;;;;;;;;4980288;28;20130;-63
2024/01/30 01:17:36;;;;;;;10.43;5.85;;;;;;;;;;4977531;28;20049;-64
2024/01/30 01:20:02;;;;;;;12.40;6.07;;;;;;;;;;4994811;28;20634;-64
2024/01/30 01:22:27;;;;;;;6.75;5.20;;;;;;;;;;4978170;28;20123;-63
2024/01/30 01:24:53;;;;;;;9.60;5.75;;;;;;;;;;4994378;28;20733;-63
2024/01/30 01:27:18;;;;;;;13.80;5.80;;;;;;;;;;4995134;28;20045;-64
2024/01/30 01:29:45;;;;;;;8.23;6.20;;;;;;;;;;4994778;28;20462;-66
2024/01/30 01:32:10;;;;;;;8.05;5.72;;;;;;;;;;4994671;28;20455;-65
2024/01/30 01:34:36;;;;;;;12.38;6.13;;;;;;;;;;4994742;28;20570;-64
2024/01/30 01:37:01;;;;;;;11.93;5.32;;;;;;;;;;4994125;28;20038;-65
2024/01/30 01:39:27;;;;;;;11.95;5.85;;;;;;;;;;4978243;28;20423;-61
2024/01/30 01:41:52;;;;;;;8.80;5.55;;;;;;;;;;4994554;28;20594;-63
2024/01/30 01:44:18;;;;;;;9.88;6.40;;;;;;;;;;4995535;28;20057;-66
2024/01/30 01:46:44;;;;;;;7.85;5.28;;;;;;;;;;4993540;28;20599;-65
2024/01/30 01:49:09;;;;;;;8.77;5.78;;;;;;;;;;4994572;28;20873;-65
2024/01/30 01:51:36;;;;;;;18.58;6.13;;;;;;;;;;4993906;28;20081;-66
2024/01/30 01:54:04;;;;;;;9.00;5.78;;;;;;;;;;4977583;28;20045;-65
2024/01/30 01:56:31;;;;;;;9.85;5.85;;;;;;;;;;4994443;28;20140;-65
2024/01/30 01:59:00;;;;;;;9.35;5.28;;;;;;;;;;4993002;28;20049;-64
2024/01/30 02:01:27;;;;;;;10.57;6.18;;;;;;;;;;4994213;28;20056;-65
2024/01/30 02:03:53;;;;;;;7.25;5.15;;;;;;;;;;4993565;28;20050;-64
2024/01/30 02:06:19;;;;;;;8.88;6.03;;;;;;;;;;4994581;28;20053;-64
2024/01/30 02:08:44;;;;;;;9.63;6.07;;;;;;;;;;4994013;28;20178;-65
2024/01/30 02:11:10;;;;;;;13.13;6.38;;;;;;;;;;4994507;28;20446;-64
2024/01/30 02:13:36;;;;;;;9.35;6.22;;;;;;;;;;4993973;28;20054;-64
2024/01/30 02:16:02;;;;;;;19.70;7.38;;;;;;;;;;4993856;28;20044;-65
2024/01/30 02:18:27;;;;;;;10.65;6.82;;;;;;;;;;4996988;28;20046;-65
2024/01/30 02:20:54;;;;;;;8.32;6.13;;;;;;;;;;4997936;28;20061;-64
2024/01/30 02:23:20;;;;;;;13.65;6.55;;;;;;;;;;4997526;28;20095;-65
2024/01/30 02:25:45;;;;;;;9.57;5.85;;;;;;;;;;4996472;28;20053;-63
2024/01/30 02:28:14;;;;;;;9.27;6.10;;;;;;;;;;4997151;28;20056;-64
2024/01/30 02:30:40;;;;;;;9.10;5.90;;;;;;;;;;4979154;28;20156;-63
2024/01/30 02:33:06;;;;;;;9.02;5.93;;;;;;;;;;4998340;28;20049;-62
2024/01/30 02:35:31;;;;;;;10.07;5.72;;;;;;;;;;4997634;28;20051;-64
2024/01/30 02:37:57;;;;;;;9.45;6.15;;;;;;;;;;4996515;28;20038;-64
2024/01/30 02:40:22;;;;;;;9.60;5.35;;;;;;;;;;4997378;28;20711;-64
2024/01/30 02:42:47;;;;;;;9.82;5.50;;;;;;;;;;4996450;28;20407;-64
2024/01/30 02:45:13;;;;;;;8.13;5.22;;;;;;;;;;4998153;28;20100;-62
2024/01/30 02:47:39;;;;;;;4.78;4.13;;;;;;;;;;4997409;28;20506;-63
2024/01/30 02:50:05;;;;;;;10.27;5.93;;;;;;;;;;4997734;28;20143;-62
2024/01/30 02:52:30;;;;;;;6.80;4.88;;;;;;;;;;4980321;28;20077;-64
2024/01/30 02:54:55;;;;;;;7.32;5.38;;;;;;;;;;4979943;28;20050;-64
2024/01/30 02:57:21;;;;;;;10.65;5.32;;;;;;;;;;4997681;28;20045;-64
2024/01/30 02:59:46;;;;;;;10.05;5.72;;;;;;;;;;4996864;28;20049;-62
2024/01/30 03:02:11;;;;;;;7.90;5.50;;;;;;;;;;4997080;28;20050;-64
2024/01/30 03:04:37;;;;;;;10.85;6.40;;;;;;;;;;4996801;28;20073;-58
2024/01/30 03:07:03;;;;;;;6.97;5.22;;;;;;;;;;4996812;28;20403;-64
2024/01/30 03:09:28;;;;;;;10.85;5.80;;;;;;;;;;4997848;28;20112;-64
2024/01/30 03:11:54;;;;;;;7.88;5.53;;;;;;;;;;4996096;28;20049;-65
2024/01/30 03:14:19;;;;;;;7.03;5.38;;;;;;;;;;4997086;28;20069;-64
2024/01/30 03:16:44;;;;;;;14.77;5.80;;;;;;;;;;4996423;28;20061;-65
2024/01/30 03:19:10;;;;;;;8.60;5.72;;;;;;;;;;4998117;28;20068;-65
2024/01/30 03:21:35;;;;;;;11.20;6.03;;;;;;;;;;4981617;28;20042;-65
2024/01/30 03:24:01;;;;;;;12.70;6.60;;;;;;;;;;4995866;28;20053;-64
2024/01/30 03:26:26;;;;;;;8.45;5.65;;;;;;;;;;4997052;28;20046;-65
2024/01/30 03:28:52;;;;;;;13.18;6.25;;;;;;;;;;4996242;28;20149;-63
2024/01/30 03:31:17;;;;;;;10.48;6.28;;;;;;;;;;4996588;28;20046;-64
2024/01/30 03:33:43;;;;;;;13.38;5.88;;;;;;;;;;4997154;28;20499;-64
2024/01/30 03:36:09;;;;;;;9.52;5.43;;;;;;;;;;4995583;28;20125;-64
2024/01/30 03:38:35;;;;;;;11.07;5.75;;;;;;;;;;4979196;28;20073;-64
2024/01/30 03:41:00;;;;;;;9.20;5.68;;;;;;;;;;4995984;28;20057;-65
2024/01/30 03:43:26;;;;;;;7.70;5.25;;;;;;;;;;4996777;28;20049;-65
2024/01/30 03:45:51;;;;;;;8.88;5.20;;;;;;;;;;4996186;28;20034;-66
2024/01/30 03:48:17;;;;;;;7.93;5.75;;;;;;;;;;4996501;28;20460;-64
2024/01/30 03:50:42;;;;;;;10.05;6.25;;;;;;;;;;4996074;28;20050;-64
2024/01/30 03:53:07;;;;;;;8.40;5.35;;;;;;;;;;4996734;28;20057;-65
2024/01/30 03:55:33;;;;;;;14.80;6.10;;;;;;;;;;4996882;28;20491;-65
2024/01/30 03:57:58;;;;;;;7.30;5.30;;;;;;;;;;4977611;28;20115;-66
2024/01/30 04:00:24;;;;;;;7.40;5.05;;;;;;;;;;4995696;28;20054;-65
2024/01/30 04:02:51;;;;;;;13.20;6.22;;;;;;;;;;4995450;28;20077;-65
2024/01/30 04:05:16;;;;;;;7.72;4.53;;;;;;;;;;4978533;28;21102;-66
2024/01/30 04:07:42;;;;;;;6.25;4.90;;;;;;;;;;4995168;28;20565;-64
2024/01/30 04:10:07;;;;;;;10.02;5.78;;;;;;;;;;4994652;28;20046;-63
2024/01/30 04:12:33;;;;;;;9.82;4.55;;;;;;;;;;4995947;28;20140;-65
2024/01/30 04:14:58;;;;;;;6.90;5.03;;;;;;;;;;4995580;28;20038;-66
2024/01/30 04:17:24;;;;;;;8.60;5.63;;;;;;;;;;4995529;28;20966;-63
2024/01/30 04:19:49;;;;;;;8.07;4.97;;;;;;;;;;4978509;28;20077;-64
2024/01/30 04:22:14;;;;;;;5.55;4.63;;;;;;;;;;4994012;28;20049;-65
2024/01/30 04:24:40;;;;;;;7.38;4.63;;;;;;;;;;4996360;28;20049;-65
2024/01/30 04:27:05;;;;;;;7.22;4.72;;;;;;;;;;4994854;28;20054;-65
2024/01/30 04:29:32;;;;;;;6.20;4.13;;;;;;;;;;4995867;28;20038;-66
2024/01/30 04:31:57;;;;;;;5.28;3.63;;;;;;;;;;4992695;28;20050;-66
2024/01/30 04:34:23;;;;;;;5.88;4.30;;;;;;;;;;4996441;28;20049;-63
2024/01/30 04:36:48;;;;;;;5.10;4.38;;;;;;;;;;4994598;28;20042;-65
2024/01/30 04:39:13;;;;;;;7.50;4.40;;;;;;;;;;4978756;28;20045;-64
2024/01/30 04:41:39;;;;;;;7.75;4.57;;;;;;;;;;4994984;28;20664;-64
2024/01/30 04:44:05;;;;;;;6.57;3.88;;;;;;;;;;4994052;28;20080;-65
2024/01/30 04:46:30;;;;;;;5.30;4.00;;;;;;;;;;4995707;28;20111;-65
2024/01/30 04:48:55;;;;;;;6.45;4.32;;;;;;;;;;4994598;28;20560;-65
2024/01/30 04:51:21;;;;;;;7.07;4.20;;;;;;;;;;4995273;28;20352;-65
2024/01/30 04:53:46;;;;;;;5.32;3.55;;;;;;;;;;4989347;28;20119;-66
2024/01/30 04:56:12;;;;;;;4.80;3.42;;;;;;;;;;4994186;28;20066;-63
2024/01/30 04:58:37;;;;;;;5.65;3.40;;;;;;;;;;4994991;28;20050;-64
2024/01/30 05:01:03;;;;;;;5.38;2.97;;;;;;;;;;4977631;28;20061;-64
2024/01/30 05:03:28;;;;;;;4.28;3.38;;;;;;;;;;4995466;28;20042;-66
2024/01/30 05:05:53;;;;;;;7.38;3.33;;;;;;;;;;4993590;28;20675;-65
2024/01/30 05:08:19;;;;;;;4.95;3.55;;;;;;;;;;4995697;28;20398;-65
2024/01/30 05:10:44;;;;;;;4.13;3.47;;;;;;;;;;4977813;28;20150;-64
2024/01/30 05:13:10;;;;;;;4.10;3.15;;;;;;;;;;4993719;28;20042;-65
2024/01/30 05:15:35;;;;;;;6.05;4.03;;;;;;;;;;4992735;28;20042;-65
2024/01/30 05:18:01;;;;;;;5.50;3.50;;;;;;;;;;4993365;28;20049;-66
2024/01/30 05:20:28;;;;;;;6.15;3.80;;;;;;;;;;4994847;28;20060;-66
2024/01/30 05:22:53;;;;;;;4.20;3.22;;;;;;;;;;4992840;28;20042;-65
2024/01/30 05:25:19;;;;;;;5.78;3.50;;;;;;;;;;4995029;28;20042;-65
2024/01/30 05:27:44;;;;;;;7.22;4.30;;;;;;;;;;4977793;28;20411;-65
2024/01/30 05:30:10;;;;;;;7.53;4.18;;;;;;;;;;4976394;28;20052;-65
2024/01/30 05:32:36;;;;;;;6.30;3.97;;;;;;;;;;4993767;28;20050;-62
2024/01/30 05:35:01;;;;;;;7.03;4.20;;;;;;;;;;4993386;28;20586;-66
2024/01/30 05:37:27;;;;;;;6.22;4.65;;;;;;;;;;4975273;28;20050;-65
2024/01/30 05:39:52;;;;;;;7.53;5.50;;;;;;;;;;4991175;28;20049;-65
2024/01/30 05:42:18;;;;;;;8.38;5.50;;;;;;;;;;4995017;28;20450;-65
2024/01/30 05:44:43;;;;;;;6.35;4.82;;;;;;;;;;4993377;28;20047;-65
2024/01/30 05:47:08;;;;;;;6.38;4.72;;;;;;;;;;4975521;28;20741;-66
2024/01/30 05:49:34;;;;;;;8.13;5.38;;;;;;;;;;4993710;28;20117;-66
2024/01/30 05:52:02;;;;;;;9.70;4.90;;;;;;;;;;4995537;28;20050;-67
2024/01/30 05:54:27;;;;;;;6.63;4.95;;;;;;;;;;4997012;28;20070;-67
2024/01/30 05:56:52;;;;;;;6.72;4.80;;;;;;;;;;4997155;28;20163;-68
2024/01/30 05:59:18;;;;;;;7.90;4.65;;;;;;;;;;4996879;28;20046;-65
2024/01/30 06:01:47;;;;;;;8.93;5.55;;;;;;;;;;4996084;28;20054;-65
2024/01/30 06:04:13;;;;;;;8.02;4.85;;;;;;;;;;4955345;28;20054;-67
2024/01/30 06:06:38;;;;;;;6.60;4.68;;;;;;;;;;4979999;28;20301;-67
2024/01/30 06:09:04;;;;;;;6.88;4.72;;;;;;;;;;4995702;28;20044;-67
2024/01/30 06:11:29;;;;;;;7.82;5.10;;;;;;;;;;4980200;28;20086;-67
2024/01/30 06:13:54;;;;;;;8.68;4.57;;;;;;;;;;4979886;28;20052;-66
2024/01/30 06:16:21;;;;;;;6.80;4.90;;;;;;;;;;4992266;28;20037;-68
2024/01/30 06:18:47;;;;;;;9.55;4.35;;;;;;;;;;4994027;28;20578;-68
2024/01/30 06:21:13;;;;;;;6.68;4.97;;;;;;;;;;4994187;28;20138;-64
2024/01/30 06:23:38;;;;;;;6.13;4.53;;;;;;;;;;4994022;28;20526;-68
2024/01/30 06:26:04;;;;;;;9.15;4.20;;;;;;;;;;4995185;28;20092;-68
2024/01/30 06:28:30;;;;;;;8.88;5.15;;;;;;;;;;4997518;28;20061;-67
2024/01/30 06:30:55;;;;;;;8.45;5.28;;;;;;;;;;4996150;28;20038;-68
2024/01/30 06:33:21;;;;;;;10.65;4.93;;;;;;;;;;4996018;28;20119;-68
2024/01/30 06:35:46;;;;;;;9.07;4.18;;;;;;;;;;4998120;28;20053;-68
2024/01/30 06:38:13;;;;;;;5.75;4.10;;;;;;;;;;4996273;28;20084;-68
2024/01/30 06:40:38;;;;;;;8.02;5.13;;;;;;;;;;4998010;28;20137;-68
2024/01/30 06:43:04;;;;;;;7.75;5.20;;;;;;;;;;4997056;28;20137;-68
2024/01/30 06:45:30;;;;;;;6.45;4.22;;;;;;;;;;4996947;28;20080;-69
2024/01/30 06:47:55;;;;;;;6.47;4.53;;;;;;;;;;4996106;28;20427;-69
2024/01/30 06:50:20;;;;;;;6.30;4.57;;;;;;;;;;4998170;28;20084;-68
2024/01/30 06:52:46;;;;;;;8.73;4.18;;;;;;;;;;4995790;28;20054;-68
2024/01/30 06:55:12;;;;;;;7.38;4.38;;;;;;;;;;4996229;28;20061;-68
2024/01/30 06:57:37;;;;;;;5.68;4.05;;;;;;;;;;4998476;28;20041;-69
2024/01/30 07:00:03;;;;;;;5.90;4.10;;;;;;;;;;4996802;28;20103;-68
2024/01/30 07:02:28;;;;;;;5.70;4.22;;;;;;;;;;4995228;28;20503;-68
2024/01/30 07:04:54;;;;;;;6.68;3.67;;;;;;;;;;4997478;28;20034;-68
2024/01/30 07:07:19;;;;;;;10.63;4.22;;;;;;;;;;4996478;28;20046;-66
2024/01/30 07:09:45;;;;;;;5.75;3.97;;;;;;;;;;4997011;28;20041;-66
2024/01/30 07:12:10;;;;;;;3.95;3.55;;;;;;;;;;4996896;28;20084;-68
2024/01/30 07:14:36;;;;;;;9.63;4.10;;;;;;;;;;4997285;28;20052;-68
2024/01/30 07:17:01;;;;;;;6.25;3.78;;;;;;;;;;4996637;28;20149;-68
2024/01/30 07:19:27;;;;;;;6.45;3.97;;;;;;;;;;4997220;28;20570;-65
2024/01/30 07:21:52;;;;;;;6.35;3.92;;;;;;;;;;4996836;28;20046;-65
2024/01/30 07:24:17;;;;;;;7.32;4.90;;;;;;;;;;4996806;28;20037;-66
2024/01/30 07:26:43;;;;;;;8.00;4.38;;;;;;;;;;4998135;28;20045;-65
2024/01/30 07:29:08;;;;;;;9.13;4.40;;;;;;;;;;4995694;28;20117;-66
2024/01/30 07:31:34;;;;;;;9.98;4.60;;;;;;;;;;4997431;28;20048;-68
2024/01/30 07:33:59;;;;;;;8.55;4.70;;;;;;;;;;4995297;28;20038;-66
2024/01/30 07:36:25;;;;;;;5.75;4.22;;;;;;;;;;4997057;28;20125;-66
2024/01/30 07:38:50;;;;;;;7.40;4.93;;;;;;;;;;4996269;28;20061;-67
2024/01/30 07:41:15;;;;;;;11.68;5.90;;;;;;;;;;4978920;28;20452;-66
2024/01/30 07:43:41;;;;;;;11.90;6.78;;;;;;;;;;4997027;28;20049;-66
2024/01/30 07:46:06;;;;;;;11.60;6.18;;;;;;;;;;4996167;28;20053;-67
2024/01/30 07:48:33;;;;;;;13.98;5.93;;;;;;;;;;4996207;28;20062;-66
2024/01/30 07:50:59;;;;;;;10.60;6.65;;;;;;;;;;4995792;28;20041;-67
2024/01/30 07:53:25;;;;;;;11.25;6.75;;;;;;;;;;4997191;28;20056;-66
2024/01/30 07:55:50;;;;;;;14.52;7.82;;;;;;;;;;4997018;28;20172;-67
2024/01/30 07:58:16;;;;;;;10.32;6.30;;;;;;;;;;4996039;28;20054;-67
2024/01/30 08:00:41;;;;;;;17.40;7.40;;;;;;;;;;4996223;28;20058;-67
2024/01/30 08:03:06;;;;;;;19.85;8.70;;;;;;;;;;4996491;28;20719;-67
2024/01/30 08:05:32;;;;;;;26.60;11.15;;;;;;;;;;4996907;28;20119;-67
2024/01/30 08:07:57;;;;;;;22.25;10.85;;;;;;;;;;4996688;28;20045;-67
2024/01/30 08:10:23;;;;;;;18.83;8.95;;;;;;;;;;4995435;28;20380;-67
2024/01/30 08:12:49;;;;;;;15.98;9.30;;;;;;;;;;4996360;28;20197;-66
2024/01/30 08:15:14;;;;;;;20.10;9.65;;;;;;;;;;4995301;28;20120;-67
2024/01/30 08:17:39;;;;;;;16.13;7.82;;;;;;;;;;4995707;28;20088;-66
2024/01/30 08:20:08;;;;;;;18.33;8.18;;;;;;;;;;4994341;28;20050;-66
2024/01/30 08:22:33;;;;;;;11.75;7.35;;;;;;;;;;4978022;28;20144;-67
2024/01/30 08:24:58;;;;;;;10.77;5.72;;;;;;;;;;4997076;28;20169;-67
2024/01/30 08:27:24;;;;;;;10.07;5.43;;;;;;;;;;4996077;28;20042;-67
2024/01/30 08:29:50;;;;;;;8.90;4.38;;;;;;;;;;4996629;28;20042;-66
2024/01/30 08:32:16;;;;;;;5.07;3.35;;;;;;;;;;4994534;28;20411;-67
2024/01/30 08:34:41;;;;;;;5.85;3.60;;;;;;;;;;4995903;28;20042;-69
2024/01/30 08:37:07;;;;;;;6.32;3.90;;;;;;;;;;4995463;28;20132;-67
2024/01/30 08:39:32;;;;;;;7.38;4.15;;;;;;;;;;4995646;28;20201;-67
2024/01/30 08:41:58;;;;;;;4.25;2.83;;;;;;;;;;4995854;28;20129;-66
2024/01/30 08:44:23;;;;;;;5.15;3.33;;;;;;;;;;4994906;28;20046;-67
2024/01/30 08:46:50;;;;;;;4.35;2.40;;;;;;;;;;4995859;28;20048;-67
2024/01/30 08:49:16;;;;;;;2.80;2.00;;;;;;;;;;4995709;28;20118;-67
2024/01/30 08:51:42;;;;;;;3.38;2.35;;;;;;;;;;4996274;28;20050;-67
2024/01/30 08:54:07;;;;;;;3.97;2.63;;;;;;;;;;4994798;28;20054;-66
2024/01/30 08:56:33;;;;;;;3.42;2.28;;;;;;;;;;4995243;28;20041;-67
2024/01/30 08:58:58;;;;;;;4.22;2.88;;;;;;;;;;4995317;28;20046;-67
2024/01/30 09:01:25;;;;;;;3.50;2.70;;;;;;;;;;4995431;28;20155;-67
2024/01/30 09:03:50;;;;;;;3.03;2.15;;;;;;;;;;4995700;28;20900;-67
2024/01/30 09:06:15;;;;;;;3.33;2.40;;;;;;;;;;4993928;28;20054;-67
2024/01/30 09:08:41;;;;;;;6.38;3.08;;;;;;;;;;4994264;28;20056;-67
2024/01/30 09:11:11;;;;;;;6.18;2.45;;;;;;;;;;4994122;28;20058;-67
2024/01/30 09:13:37;;;;;;;4.80;3.72;;;;;;;;;;4978712;28;20062;-67
2024/01/30 09:16:03;;;;;;;6.82;3.33;;;;;;;;;;4978566;28;20038;-67
2024/01/30 09:18:28;;;;;;;4.68;2.97;;;;;;;;;;4994468;28;20056;-67
2024/01/30 09:20:54;;;;;;;6.18;2.92;;;;;;;;;;4995808;28;20045;-66
2024/01/30 09:23:19;;;;;;;2.60;2.40;;;;;;;;;;4995768;28;20136;-66
2024/01/30 09:25:45;;;;;;;6.78;2.53;;;;;;;;;;4978635;28;20041;-66
2024/01/30 09:28:10;;;;;;;3.03;2.50;;;;;;;;;;4993899;28;20495;-66
2024/01/30 09:30:36;;;;;;;3.72;2.47;;;;;;;;;;4980742;28;20050;-68
2024/01/30 09:33:01;;;;;;;5.30;2.75;;;;;;;;;;4995507;28;20065;-67
2024/01/30 09:35:27;;;;;;;3.83;2.22;;;;;;;;;;4995054;28;20108;-67
2024/01/30 09:37:52;;;;;;;3.75;2.65;;;;;;;;;;4995196;28;20477;-67
2024/01/30 09:40:19;;;;;;;3.78;2.80;;;;;;;;;;4993423;28;20053;-67
2024/01/30 09:42:48;;;;;;;4.00;3.00;;;;;;;;;;4996161;28;20122;-66
2024/01/30 09:45:14;;;;;;;2.40;2.20;;;;;;;;;;4994920;28;20050;-67
2024/01/30 09:47:44;;;;;;;4.95;3.10;;;;;;;;;;4979002;28;20048;-67
2024/01/30 09:50:11;;;;;;;4.72;3.50;;;;;;;;;;4976642;28;20042;-67
2024/01/30 09:52:37;;;;;;;3.00;2.70;;;;;;;;;;4995099;28;20096;-67
2024/01/30 09:55:13;;;;;;;4.32;2.58;;;;;;;;;;4985571;28;20519;-67
2024/01/30 09:57:49;;;;;;;5.35;2.47;;;;;;;;;;4977622;28;20757;-66
2024/01/30 10:00:17;;;;;;;4.13;2.00;;;;;;;;;;4992510;28;20188;-66
2024/01/30 10:02:54;;;;;;;2.30;1.75;;;;;;;;;;4975654;28;20061;-67
2024/01/30 10:05:33;;;;;;;2.85;2.10;;;;;;;;;;4993617;28;20514;-67
2024/01/30 10:08:08;;;;;;;2.78;2.42;;;;;;;;;;4993384;28;20513;-67
2024/01/30 10:10:39;;;;;;;3.03;2.30;;;;;;;;;;4994087;28;20455;-67
2024/01/30 10:13:11;;;;;;;2.38;2.10;;;;;;;;;;4992825;28;20136;-66
2024/01/30 10:15:48;;;;;;;2.78;2.20;;;;;;;;;;4993374;28;20124;-67
2024/01/30 10:18:23;;;;;;;6.22;3.03;;;;;;;;;;4982630;28;20046;-67
2024/01/30 10:20:54;;;;;;;5.22;3.25;;;;;;;;;;4993872;28;20137;-67
2024/01/30 10:23:26;;;;;;;3.22;2.53;;;;;;;;;;4982561;28;20121;-67
2024/01/30 10:25:54;;;;;;;5.60;2.78;;;;;;;;;;4973068;28;20042;-68
2024/01/30 10:28:26;;;;;;;5.38;2.55;;;;;;;;;;4993862;28;20400;-67
2024/01/30 10:31:00;;;;;;;7.13;2.63;;;;;;;;;;4982398;28;20042;-67
2024/01/30 10:33:32;;;;;;;3.22;2.72;;;;;;;;;;4986561;28;20133;-66
2024/01/30 10:36:02;;;;;;;3.30;2.20;;;;;;;;;;4981948;28;20070;-67
2024/01/30 10:38:32;;;;;;;4.80;2.60;;;;;;;;;;4969155;28;20046;-66
2024/01/30 10:41:00;;;;;;;4.20;2.65;;;;;;;;;;4997687;28;20046;-66
2024/01/30 10:43:35;;;;;;;3.72;2.42;;;;;;;;;;4979954;28;20046;-67
2024/01/30 10:46:29;;;;;;;2.78;1.67;;;;;;;;;;4995944;28;20053;-67
2024/01/30 10:49:01;;;;;;;3.47;1.90;;;;;;;;;;4996848;28;20096;-66
2024/01/30 10:51:34;;;;;;;2.65;2.20;;;;;;;;;;4988938;28;20104;-67
2024/01/30 10:54:11;;;;;;;2.08;1.83;;;;;;;;;;4978528;28;20067;-67
2024/01/30 10:56:39;;;;;;;2.72;2.00;;;;;;;;;;4964390;28;20060;-68
2024/01/30 10:59:10;;;;;;;3.50;1.83;;;;;;;;;;4986467;28;20042;-67
2024/01/30 11:01:45;;;;;;;1.98;1.60;;;;;;;;;;4987377;28;20037;-67
2024/01/30 11:04:16;;;;;;;2.45;1.83;;;;;;;;;;4988980;28;20058;-67
2024/01/30 11:06:42;;;;;;;1.73;1.63;;;;;;;;;;4997682;28;20507;-67
2024/01/30 11:09:12;;;;;;;3.63;1.50;;;;;;;;;;4996853;28;20046;-67
2024/01/30 11:11:54;;;;;;;2.00;1.80;;;;;;;;;;4986250;28;20153;-67
2024/01/30 11:14:26;;;;;;;4.93;2.40;;;;;;;;;;4994506;28;20069;-67
2024/01/30 11:17:03;;;;;;;3.72;2.15;;;;;;;;;;4989551;28;20053;-67
2024/01/30 11:19:35;;;;;;;9.15;2.70;;;;;;;;;;4994227;28;20050;-67
2024/01/30 11:22:25;;;;;;;2.70;2.10;;;;;;;;;;4969798;28;20049;-66
2024/01/30 11:24:55;;;;;;;;;;;;;;;;;;4982715;28;20075;-67
2024/01/30 11:27:21;;;;;;;2.42;2.05;;;;;;;;;;4979571;28;19928;-67
2024/01/30 11:29:52;;;;;;;3.03;2.45;;;;;;;;;;4985927;28;20092;-67
2024/01/30 11:32:25;;;;;;;3.70;2.47;;;;;;;;;;4995351;28;20521;-67
2024/01/30 11:34:55;;;;;;;3.55;2.40;;;;;;;;;;4995974;28;20100;-68
2024/01/30 11:37:27;;;;;;;5.47;2.20;;;;;;;;;;4988408;28;20449;-67
2024/01/30 11:39:56;;;;;;;4.00;2.30;;;;;;;;;;4967309;28;20205;-67
2024/01/30 11:42:34;;;;;;;2.45;2.22;;;;;;;;;;4994196;28;20196;-67
2024/01/30 11:45:05;;;;;;;3.03;2.13;;;;;;;;;;4996066;28;20049;-67
2024/01/30 11:47:36;;;;;;;2.17;1.98;;;;;;;;;;4980225;28;20041;-67
2024/01/30 11:50:14;;;;;;;3.00;2.20;;;;;;;;;;4983338;28;20057;-66
2024/01/30 11:52:46;;;;;;;2.50;1.95;;;;;;;;;;4985046;28;20049;-67
2024/01/30 11:55:17;;;;;;;2.10;1.90;;;;;;;;;;4996921;28;20057;-67
2024/01/30 11:57:46;;;;;;;2.30;1.63;;;;;;;;;;4997018;28;20491;-67
2024/01/30 12:00:33;;;;;;;1.67;1.50;;;;;;;;;;4985988;28;20060;-67
2024/01/30 12:03:11;;;;;;;1.60;1.50;;;;;;;;;;4980171;28;20644;-67
2024/01/30 12:05:43;;;;;;;4.20;2.42;;;;;;;;;;4995969;28;20058;-67
2024/01/30 12:08:18;;;;;;;1.90;1.40;;;;;;;;;;4947755;28;20407;-68
2024/01/30 12:11:05;;;;;;;2.00;1.25;;;;;;;;;;4976996;28;20049;-67
2024/01/30 12:13:31;;;;;;;2.00;1.50;;;;;;;;;;4984800;28;20046;-67
2024/01/30 12:16:17;;;;;;;2.30;1.83;;;;;;;;;;4984528;28;20053;-67
2024/01/30 12:18:49;;;;;;;1.58;1.27;;;;;;;;;;4995367;28;20037;-66
2024/01/30 12:21:21;;;;;;;1.42;1.10;;;;;;;;;;4987617;28;20060;-66
2024/01/30 12:23:50;;;;;;;1.30;1.20;;;;;;;;;;4996258;28;20558;-66
2024/01/30 12:26:18;;;;;;;1.83;1.30;;;;;;;;;;4967191;28;20238;-66
2024/01/30 12:28:55;;;;;;;1.20;0.95;;;;;;;;;;4974669;28;20529;-66
2024/01/30 12:31:41;;;;;;;1.23;1.00;;;;;;;;;;4990218;28;20148;-66
2024/01/30 12:34:23;;;;;;;1.10;1.00;;;;;;;;;;4967993;28;20072;-66
2024/01/30 12:36:49;;;;;;;1.20;1.10;;;;;;;;;;4985430;28;20053;-66
2024/01/30 12:39:41;;;;;;;1.30;1.10;;;;;;;;;;4982678;28;20049;-66
2024/01/30 12:42:13;;;;;;;1.92;1.27;;;;;;;;;;4982985;28;20046;-66
2024/01/30 12:47:29;;;;;;;1.55;1.20;;;;;;;;;;4975530;28;20085;-66
2024/01/30 12:50:04;;;;;;;2.13;1.50;;;;;;;;;;4954411;28;20042;-66
2024/01/30 12:52:38;;;;;;;2.17;1.40;;;;;;;;;;4966915;28;20625;-66
2024/01/30 12:55:15;;;;;;;1.60;1.50;;;;;;;;;;4994038;28;20045;-66
2024/01/30 12:57:45;;;;;;;1.98;1.63;;;;;;;;;;4989663;28;20136;-66
2024/01/30 13:00:16;;;;;;;3.03;1.30;;;;;;;;;;4945817;28;20076;-66
2024/01/30 13:02:45;;;;;;;2.13;1.50;;;;;;;;;;4967583;28;20050;-66
2024/01/30 13:05:16;;;;;;;1.33;1.20;;;;;;;;;;4971548;28;20049;-66
2024/01/30 13:08:05;;;;;;;3.83;1.58;;;;;;;;;;4981004;28;20049;-66
2024/01/30 13:10:31;;;;;;;2.83;1.50;;;;;;;;;;4983838;28;20091;-68
2024/01/30 13:12:56;;;;;;;3.30;1.30;;;;;;;;;;4993441;28;20037;-66
2024/01/30 13:15:22;;;;;;;2.92;1.50;;;;;;;;;;4994432;28;20505;-66
2024/01/30 13:17:48;;;;;;;1.75;1.50;;;;;;;;;;4993435;28;20046;-66
2024/01/30 13:20:19;;;;;;;2.88;1.70;;;;;;;;;;4991834;28;20301;-66
2024/01/30 13:22:45;;;;;;;1.60;1.50;;;;;;;;;;4994001;28;20069;-66
2024/01/30 13:25:10;;;;;;;2.15;1.40;;;;;;;;;;4993701;28;20155;-66
2024/01/30 13:27:37;;;;;;;1.70;1.42;;;;;;;;;;4976481;28;20050;-66
2024/01/30 13:30:03;;;;;;;2.70;1.40;;;;;;;;;;4993089;28;20092;-66
2024/01/30 13:32:29;;;;;;;2.28;1.55;;;;;;;;;;4992971;28;20041;-66
2024/01/30 13:34:54;;;;;;;2.28;1.50;;;;;;;;;;4994372;28;20041;-66
2024/01/30 13:37:20;;;;;;;3.15;1.50;;;;;;;;;;4993172;28;20053;-66
2024/01/30 13:39:45;;;;;;;1.50;1.35;;;;;;;;;;4993985;28;20053;-66
2024/01/30 13:42:10;;;;;;;3.50;2.13;;;;;;;;;;4994284;28;20092;-66
2024/01/30 13:44:36;;;;;;;3.58;1.92;;;;;;;;;;4995330;28;20045;-66
2024/01/30 13:47:02;;;;;;;10.23;2.35;;;;;;;;;;4994299;28;20046;-66
2024/01/30 13:49:27;;;;;;;3.60;2.45;;;;;;;;;;4992951;28;20129;-66
2024/01/30 13:51:53;;;;;;;4.15;2.10;;;;;;;;;;4989960;28;20038;-66
2024/01/30 13:54:18;;;;;;;2.78;2.13;;;;;;;;;;4991695;28;20461;-66
2024/01/30 13:56:43;;;;;;;6.03;2.80;;;;;;;;;;4976430;28;20511;-66
2024/01/30 13:59:09;;;;;;;4.70;2.67;;;;;;;;;;4992256;28;20056;-66
2024/01/30 14:01:34;;;;;;;4.57;2.78;;;;;;;;;;4976124;28;20045;-66
2024/01/30 14:04:00;;;;;;;3.03;2.60;;;;;;;;;;4990905;28;20074;-66
2024/01/30 14:06:25;;;;;;;3.17;1.80;;;;;;;;;;4995048;28;20046;-66
2024/01/30 14:08:50;;;;;;;2.47;1.80;;;;;;;;;;4994049;28;20065;-66
2024/01/30 14:11:16;;;;;;;5.43;2.10;;;;;;;;;;4995512;28;20593;-66
2024/01/30 14:13:41;;;;;;;6.25;2.13;;;;;;;;;;4997621;28;20668;-65
2024/01/30 14:16:07;;;;;;;10.57;2.17;;;;;;;;;;4997423;28;20088;-66
2024/01/30 14:18:32;;;;;;;6.20;2.20;;;;;;;;;;4998864;28;20046;-66
2024/01/30 14:20:57;;;;;;;4.45;1.88;;;;;;;;;;5000847;28;20112;-66
2024/01/30 14:23:23;;;;;;;3.33;2.22;;;;;;;;;;4999130;28;20052;-66
2024/01/30 14:25:49;;;;;;;7.53;1.90;;;;;;;;;;4965583;28;20038;-66
2024/01/30 14:28:14;;;;;;;2.95;2.10;;;;;;;;;;4999153;28;20050;-67
2024/01/30 14:30:40;;;;;;;3.63;2.15;;;;;;;;;;4998205;28;20490;-67
2024/01/30 14:33:06;;;;;;;4.30;2.25;;;;;;;;;;4998575;28;20136;-67
2024/01/30 14:35:32;;;;;;;2.80;2.15;;;;;;;;;;4996743;28;20112;-67
2024/01/30 14:37:57;;;;;;;3.05;2.35;;;;;;;;;;4996362;28;20050;-68
2024/01/30 14:40:23;;;;;;;4.32;2.22;;;;;;;;;;4999314;28;20054;-67
2024/01/30 14:42:48;;;;;;;4.53;2.20;;;;;;;;;;4980778;28;20058;-68
2024/01/30 14:45:14;;;;;;;2.30;1.95;;;;;;;;;;4998764;28;20042;-67